Главная страница
METAR-TAF:

METAR-TAF

Аэропорты :

Мехрабад

Тегеран, Иран

широта: 35-41N, долгота: 051-21E, высота над уровнем моря: 1204 м

Текущие метеонаблюдения

Эта сводка был подготовлена 22 минут назад, в 01:00 UTC
Ветер 6 Узел от западный
Температура 17°C
Влажность 52%
Давление 1018 hPa
Видимость 10 км и более
Нет облачности ниже 1500 м, и нет кучево-дождевой облачности

METAR: OIII 250100Z 28006KT CAVOK 17/07 Q1017 A3005 NOSIG

Время: 04:52 (01:22 UTC)

Прогноз

Эта сводка был подготовлена 2 часа и 22 минут назад, в 23:00 UTC
Прогноз действительный с 25-го 00 UTC до 26-го 06 UTC
Ветер 8 Узел от западно-северо-западный
Видимость: 8000 м
небольшая облачность на высоте 4000 фута
временами
С 25-го 08 UTC до 25-го 12 UTC
Ветер 14 Узел от юго-восточный

TAF: OIII 242300Z 2500/2606 30004MPS 8000 FEW040 TEMPO 2508/2512 14007MPS

Метеонаблюдения и прогнозы для более 4000 аэропортов (сводки METAR и TAF).

Имеющиеся станции представлены на карте желтыми и красными точками.

Чтобы увидеть название станции, наведите на нее мышь.

Затем щелкните, чтобы увидеть метеонаблюдения и метеопрогнозы.

Управление картой: чтобы увеличить масштаб, щелкните зеленые кнопки с черным крестиком; чтобы уменьшить масштаб, щелкните зеленую кнопку с тире; для просмотра соседних карт щелкайте зеленые стрелки.


METAR-TAF: